| time (UTC) | temp F | wind direction | speed knots | gust knots | rain 1hr in | rain 24hr in | rain mn in | humidity % | barometer mb |
| 20260505231127 | 73 | 199 | 3.5 | 3.5 | 0.00 | 0.00 | 0.00 | 53 | 1008.0 |
| 20260505230625 | 73 | 216 | 0.0 | 4.3 | 0.00 | 0.00 | 0.00 | 53 | 1008.0 |
| 20260505230120 | 73 | 147 | 4.3 | 4.3 | 0.00 | 0.00 | 0.00 | 52 | 1007.6 |
| 20260505225617 | 74 | 224 | 2.6 | 9.6 | 0.00 | 0.00 | 0.00 | 50 | 1007.7 |
| 20260505225113 | 74 | 253 | 1.7 | 5.2 | 0.00 | 0.00 | 0.00 | 49 | 1007.7 |
| 20260505224610 | 75 | 96 | 0.9 | 4.3 | 0.00 | 0.00 | 0.00 | 49 | 1007.6 |
| 20260505224108 | 75 | 242 | 3.5 | 4.3 | 0.00 | 0.00 | 0.00 | 48 | 1008.0 |
| 20260505223605 | 76 | 145 | 1.7 | 6.1 | 0.00 | 0.00 | 0.00 | 47 | 1007.6 |
| 20260505223101 | 76 | 162 | 4.3 | 7.8 | 0.00 | 0.00 | 0.00 | 47 | 1007.6 |
| 20260505222558 | 76 | 160 | 1.7 | 8.7 | 0.00 | 0.00 | 0.00 | 46 | 1007.7 |
| 20260505222054 | 77 | 325 | 1.7 | 3.5 | 0.00 | 0.00 | 0.00 | 44 | 1007.7 |
| 20260505221551 | 78 | 205 | 2.6 | 4.3 | 0.00 | 0.00 | 0.00 | 43 | 1007.7 |
| 20260505221047 | 80 | 159 | 5.2 | 7.8 | 0.00 | 0.00 | 0.00 | 40 | 1007.6 |
| 20260505220545 | 79 | 258 | 0.9 | 6.1 | 0.00 | 0.00 | 0.00 | 41 | 1007.4 |
| 20260505220043 | 79 | 207 | 1.7 | 3.5 | 0.00 | 0.00 | 0.00 | 42 | 1007.1 |
| 20260505215541 | 80 | 262 | 1.7 | 5.2 | 0.00 | 0.00 | 0.00 | 41 | 1007.3 |
| 20260505215038 | 82 | 162 | 1.7 | 5.2 | 0.00 | 0.00 | 0.00 | 38 | 1007.2 |
| 20260505214536 | 82 | 137 | 4.3 | 4.3 | 0.00 | 0.00 | 0.00 | 37 | 1007.3 |
| 20260505214033 | 81 | 107 | 2.6 | 4.3 | 0.00 | 0.00 | 0.00 | 38 | 1007.2 |
| 20260505213531 | 81 | 251 | 1.7 | 6.1 | 0.00 | 0.00 | 0.00 | 38 | 1007.2 |
| 20260505213026 | 80 | 104 | 0.9 | 4.3 | 0.00 | 0.00 | 0.00 | 40 | 1007.1 |
| 20260505212522 | 80 | 123 | 0.0 | 3.5 | 0.00 | 0.00 | 0.00 | 42 | 1007.3 |
| 20260505212020 | 78 | 143 | 4.3 | 6.1 | 0.00 | 0.00 | 0.00 | 44 | 1007.3 |
| 20260505211517 | 78 | 154 | 2.6 | 5.2 | 0.00 | 0.00 | 0.00 | 43 | 1007.3 |
| 20260505211014 | 79 | 119 | 1.7 | 4.3 | 0.00 | 0.00 | 0.00 | 41 | 1007.2 |
| 20260505210510 | 79 | 103 | 6.1 | 7.8 | 0.00 | 0.00 | 0.00 | 42 | 1007.0 |
| 20260505210007 | 80 | 131 | 2.6 | 5.2 | 0.00 | 0.00 | 0.00 | 41 | 1007.0 |
| 20260505205506 | 79 | 156 | 3.5 | 8.7 | 0.00 | 0.00 | 0.00 | 42 | 1007.0 |
| 20260505205002 | 80 | 146 | 4.3 | 9.6 | 0.00 | 0.00 | 0.00 | 40 | 1007.1 |
| 20260505204500 | 84 | 186 | 3.5 | 4.3 | 0.00 | 0.00 | 0.00 | 32 | 1007.2 |
| 20260505203957 | 83 | 270 | 1.7 | 7.8 | 0.00 | 0.00 | 0.00 | 36 | 1007.2 |
| 20260505203453 | 80 | 146 | 1.7 | 9.6 | 0.00 | 0.00 | 0.00 | 41 | 1006.8 |
| 20260505202950 | 82 | 200 | 1.7 | 3.5 | 0.00 | 0.00 | 0.00 | 40 | 1007.1 |
| 20260505202447 | 81 | 82 | 0.0 | 2.6 | 0.00 | 0.00 | 0.00 | 41 | 1007.3 |
| 20260505201942 | 80 | 165 | 4.3 | 7.0 | 0.00 | 0.00 | 0.00 | 42 | 1007.2 |
| 20260505201439 | 80 | 193 | 2.6 | 3.5 | 0.00 | 0.00 | 0.00 | 41 | 1007.2 |
| 20260505200937 | 80 | 207 | 2.6 | 5.2 | 0.00 | 0.00 | 0.00 | 42 | 1007.4 |
| 20260505200435 | 80 | 162 | 5.2 | 7.0 | 0.00 | 0.00 | 0.00 | 41 | 1007.3 |
| 20260505195931 | 80 | 169 | 3.5 | 4.3 | 0.00 | 0.00 | 0.00 | 42 | 1007.3 |
| 20260505195428 | 81 | 75 | 1.7 | 3.5 | 0.00 | 0.00 | 0.00 | 41 | 1007.2 |
| 20260505194925 | 80 | 143 | 3.5 | 5.2 | 0.00 | 0.00 | 0.00 | 43 | 1007.6 |
| 20260505194423 | 79 | 163 | 1.7 | 4.3 | 0.00 | 0.00 | 0.00 | 44 | 1007.8 |
| 20260505193922 | 79 | 204 | 3.5 | 10.4 | 0.00 | 0.00 | 0.00 | 44 | 1007.5 |
| 20260505193420 | 79 | 107 | 9.6 | 12.2 | 0.00 | 0.00 | 0.00 | 44 | 1007.8 |
| 20260505192918 | 79 | 284 | 1.7 | 9.6 | 0.00 | 0.00 | 0.00 | 44 | 1008.0 |
| 20260505192416 | 80 | 230 | 0.9 | 2.6 | 0.00 | 0.00 | 0.00 | 44 | 1007.9 |
| 20260505191913 | 79 | 170 | 4.3 | 7.0 | 0.00 | 0.00 | 0.00 | 44 | 1007.9 |
| 20260505191412 | 79 | 193 | 3.5 | 6.1 | 0.00 | 0.00 | 0.00 | 45 | 1008.0 |
| 20260505190908 | 77 | 172 | 1.7 | 13.9 | 0.00 | 0.00 | 0.00 | 47 | 1008.2 |
| 20260505190403 | 77 | 128 | 3.5 | 10.4 | 0.00 | 0.00 | 0.00 | 47 | 1008.6 |
| 20260505185859 | 78 | 191 | 0.9 | 5.2 | 0.00 | 0.00 | 0.00 | 46 | 1008.5 |
| 20260505185356 | 77 | 146 | 3.5 | 7.8 | 0.00 | 0.00 | 0.00 | 47 | 1008.6 |
| 20260505184853 | 78 | 236 | 3.5 | 7.8 | 0.00 | 0.00 | 0.00 | 45 | 1008.9 |
| 20260505184350 | 77 | 108 | 2.6 | 10.4 | 0.00 | 0.00 | 0.00 | 47 | 1008.6 |
| 20260505183847 | 78 | 232 | 4.3 | 5.2 | 0.00 | 0.00 | 0.00 | 47 | 1008.7 |
| 20260505183343 | 77 | 170 | 2.6 | 6.1 | 0.00 | 0.00 | 0.00 | 47 | 1008.7 |
| 20260505182840 | 77 | 89 | 1.7 | 7.8 | 0.00 | 0.00 | 0.00 | 48 | 1008.8 |
| 20260505182337 | 77 | 220 | 3.5 | 8.7 | 0.00 | 0.00 | 0.00 | 48 | 1008.9 |
| 20260505181834 | 78 | 153 | 5.2 | 8.7 | 0.00 | 0.00 | 0.00 | 47 | 1009.1 |
| 20260505181331 | 77 | 130 | 3.5 | 6.1 | 0.00 | 0.00 | 0.00 | 48 | 1009.1 |
| 20260505180827 | 77 | 163 | 2.6 | 5.2 | 0.00 | 0.00 | 0.00 | 47 | 1008.9 |
| 20260505180324 | 76 | 345 | 1.7 | 7.0 | 0.00 | 0.00 | 0.00 | 50 | 1008.9 |
| 20260505175820 | 76 | 102 | 5.2 | 8.7 | 0.00 | 0.00 | 0.00 | 51 | 1008.9 |
| 20260505175317 | 75 | 131 | 7.0 | 11.3 | 0.00 | 0.00 | 0.00 | 51 | 1009.2 |
| 20260505174814 | 77 | 211 | 2.6 | 7.0 | 0.00 | 0.00 | 0.00 | 49 | 1009.4 |
| 20260505174311 | 77 | 191 | 1.7 | 6.1 | 0.00 | 0.00 | 0.00 | 49 | 1009.0 |
| 20260505173807 | 77 | 131 | 4.3 | 7.0 | 0.00 | 0.00 | 0.00 | 49 | 1009.3 |
| 20260505173303 | 77 | 85 | 3.5 | 7.0 | 0.00 | 0.00 | 0.00 | 49 | 1009.2 |
| 20260505172801 | 78 | 235 | 4.3 | 7.0 | 0.00 | 0.00 | 0.00 | 48 | 1009.3 |
| 20260505172258 | 77 | 152 | 1.7 | 8.7 | 0.00 | 0.00 | 0.00 | 48 | 1009.3 |
| 20260505171753 | 78 | 252 | 0.9 | 8.7 | 0.00 | 0.00 | 0.00 | 47 | 1009.4 |
| 20260505171250 | 77 | 242 | 2.6 | 5.2 | 0.00 | 0.00 | 0.00 | 48 | 1009.1 |
| 20260505170746 | 78 | 141 | 3.5 | 6.1 | 0.00 | 0.00 | 0.00 | 47 | 1009.3 |
| 20260505170244 | 78 | 193 | 2.6 | 10.4 | 0.00 | 0.00 | 0.00 | 47 | 1009.1 |
| 20260505165743 | 79 | 177 | 1.7 | 5.2 | 0.00 | 0.00 | 0.00 | 44 | 1009.3 |
| 20260505165240 | 79 | 209 | 5.2 | 9.6 | 0.00 | 0.00 | 0.00 | 42 | 1009.3 |
| 20260505164735 | 79 | 100 | 0.9 | 5.2 | 0.00 | 0.00 | 0.00 | 42 | 1009.2 |
| 20260505164233 | 79 | 152 | 0.9 | 5.2 | 0.00 | 0.00 | 0.00 | 42 | 1009.5 |
| 20260505163731 | 78 | 215 | 1.7 | 11.3 | 0.00 | 0.00 | 0.00 | 43 | 1009.5 |
| 20260505163229 | 78 | 102 | 1.7 | 7.0 | 0.00 | 0.00 | 0.00 | 44 | 1009.4 |
| 20260505162726 | 77 | 169 | 7.0 | 9.6 | 0.00 | 0.00 | 0.00 | 46 | 1009.6 |
| 20260505162223 | 77 | 225 | 2.6 | 6.1 | 0.00 | 0.00 | 0.00 | 45 | 1009.7 |
| 20260505161720 | 77 | 207 | 3.5 | 9.6 | 0.00 | 0.00 | 0.00 | 45 | 1009.8 |
| 20260505161218 | 77 | 151 | 1.7 | 5.2 | 0.00 | 0.00 | 0.00 | 47 | 1009.7 |
| 20260505160715 | 77 | 85 | 1.7 | 6.1 | 0.00 | 0.00 | 0.00 | 48 | 1009.9 |
| 20260505160212 | 77 | 96 | 2.6 | 3.5 | 0.00 | 0.00 | 0.00 | 48 | 1010.0 |
| 20260505153152 | 75 | 244 | 3.5 | 8.7 | 0.00 | 0.00 | 0.00 | 47 | 1010.0 |
| 20260505152648 | 74 | 248 | 0.0 | 5.2 | 0.00 | 0.00 | 0.00 | 47 | 1010.2 |
| 20260505152144 | 74 | 284 | 4.3 | 7.0 | 0.00 | 0.00 | 0.00 | 48 | 1010.2 |
| 20260505151639 | 74 | 232 | 5.2 | 7.8 | 0.00 | 0.00 | 0.00 | 48 | 1010.3 |
| 20260505151137 | 73 | 239 | 1.7 | 9.6 | 0.00 | 0.00 | 0.00 | 49 | 1010.4 |
| 20260505150633 | 74 | 226 | 1.7 | 4.3 | 0.00 | 0.00 | 0.00 | 49 | 1010.4 |
| 20260505150130 | 73 | 242 | 0.0 | 7.0 | 0.00 | 0.00 | 0.00 | 50 | 1010.6 |
| 20260505140559 | 70 | 267 | 4.3 | 7.8 | 0.00 | 0.00 | 0.00 | 55 | 1010.6 |
| 20260505125012 | 68 | 210 | 3.5 | 4.3 | 0.00 | 0.00 | 0.00 | 57 | 1010.4 |
| 20260505124509 | 68 | 242 | 3.5 | 4.3 | 0.00 | 0.00 | 0.00 | 57 | 1010.3 |
| 20260505124005 | 67 | 18 | 0.9 | 6.1 | 0.00 | 0.00 | 0.00 | 59 | 1010.2 |
| 20260505123502 | 67 | 242 | 3.5 | 6.1 | 0.00 | 0.00 | 0.00 | 59 | 1010.3 |
| 20260505122958 | 67 | 230 | 3.5 | 4.3 | 0.00 | 0.00 | 0.00 | 59 | 1010.3 |
| 20260505122455 | 67 | 219 | 3.5 | 5.2 | 0.00 | 0.00 | 0.00 | 59 | 1010.2 |
| 20260505121952 | 67 | 208 | 2.6 | 4.3 | 0.00 | 0.00 | 0.00 | 60 | 1010.1 |
| 20260505121449 | 66 | 233 | 1.7 | 8.7 | 0.00 | 0.00 | 0.00 | 60 | 1010.3 |
| 20260505120944 | 66 | 221 | 4.3 | 7.8 | 0.00 | 0.00 | 0.00 | 61 | 1010.4 |
| 20260505120441 | 65 | 256 | 1.7 | 5.2 | 0.00 | 0.00 | 0.00 | 61 | 1010.3 |
| 20260505115940 | 66 | 238 | 2.6 | 5.2 | 0.00 | 0.00 | 0.00 | 61 | 1010.1 |
| 20260505115437 | 65 | 268 | 1.7 | 4.3 | 0.00 | 0.00 | 0.00 | 62 | 1010.2 |
| 20260505114935 | 65 | 241 | 2.6 | 4.3 | 0.00 | 0.00 | 0.00 | 63 | 1010.0 |
| 20260505114431 | 65 | 195 | 0.9 | 4.3 | 0.00 | 0.00 | 0.00 | 63 | 1010.1 |
| 20260505113927 | 65 | 218 | 2.6 | 2.6 | 0.00 | 0.00 | 0.00 | 62 | 1010.3 |
| 20260505113424 | 64 | 247 | 2.6 | 2.6 | 0.00 | 0.00 | 0.00 | 63 | 1010.6 |
| 20260505112920 | 64 | 247 | 1.7 | 5.2 | 0.00 | 0.00 | 0.00 | 64 | 1010.4 |
| 20260505112418 | 64 | 240 | 3.5 | 5.2 | 0.00 | 0.00 | 0.00 | 64 | 1010.3 |
| 20260505111914 | 63 | 289 | 4.3 | 7.8 | 0.00 | 0.00 | 0.00 | 65 | 1010.3 |
| 20260505111414 | 62 | 247 | 5.2 | 8.7 | 0.00 | 0.00 | 0.00 | 66 | 1010.4 |
| 20260505110911 | 62 | 245 | 6.1 | 6.1 | 0.00 | 0.00 | 0.00 | 67 | 1010.4 |
| 20260505110408 | 62 | 255 | 3.5 | 8.7 | 0.00 | 0.00 | 0.00 | 67 | 1010.2 |
| 20260505101838 | 61 | 249 | 4.3 | 5.2 | 0.00 | 0.00 | 0.00 | 69 | 1010.1 |
| 20260505101334 | 61 | 286 | 2.6 | 5.2 | 0.00 | 0.00 | 0.00 | 69 | 1010.2 |
| 20260505100830 | 61 | 250 | 3.5 | 5.2 | 0.00 | 0.00 | 0.00 | 70 | 1010.1 |
| 20260505100327 | 60 | 249 | 5.2 | 5.2 | 0.00 | 0.00 | 0.00 | 71 | 1009.9 |
| 20260505095822 | 61 | 236 | 0.0 | 9.6 | 0.00 | 0.00 | 0.00 | 70 | 1009.7 |
| 20260505095320 | 61 | 274 | 5.2 | 9.6 | 0.00 | 0.00 | 0.00 | 70 | 1009.6 |
| 20260505094816 | 61 | 240 | 2.6 | 4.3 | 0.00 | 0.00 | 0.00 | 70 | 1009.5 |
| 20260505094313 | 61 | 245 | 3.5 | 8.7 | 0.00 | 0.00 | 0.00 | 70 | 1009.5 |
| 20260505093808 | 61 | 237 | 3.5 | 5.2 | 0.00 | 0.00 | 0.00 | 70 | 1009.3 |
| 20260505093306 | 61 | 249 | 7.8 | 7.8 | 0.00 | 0.00 | 0.00 | 69 | 1009.3 |
| 20260505092803 | 61 | 280 | 1.7 | 6.1 | 0.00 | 0.00 | 0.00 | 70 | 1009.5 |
| 20260505092304 | 60 | 242 | 4.3 | 7.8 | 0.00 | 0.00 | 0.00 | 70 | 1009.6 |
| 20260505091758 | 60 | 235 | 1.7 | 4.3 | 0.00 | 0.00 | 0.00 | 70 | 1009.6 |
| 20260505091256 | 60 | 248 | 2.6 | 9.6 | 0.00 | 0.00 | 0.00 | 71 | 1009.7 |
| 20260505090754 | 59 | 268 | 1.7 | 3.5 | 0.00 | 0.00 | 0.00 | 72 | 1009.4 |
| 20260505090252 | 59 | 277 | 1.7 | 4.3 | 0.00 | 0.00 | 0.00 | 72 | 1009.7 |
| 20260505085749 | 59 | 229 | 1.7 | 6.1 | 0.00 | 0.00 | 0.00 | 73 | 1009.5 |
| 20260505085247 | 59 | 225 | 2.6 | 4.3 | 0.00 | 0.00 | 0.00 | 74 | 1009.6 |
| 20260505084744 | 58 | 237 | 1.7 | 3.5 | 0.00 | 0.00 | 0.00 | 74 | 1009.5 |
| 20260505084243 | 58 | 218 | 1.7 | 4.3 | 0.00 | 0.00 | 0.00 | 75 | 1009.5 |
| 20260505083739 | 58 | 193 | 3.5 | 4.3 | 0.00 | 0.00 | 0.00 | 75 | 1009.4 |
| 20260505083236 | 58 | 282 | 0.9 | 3.5 | 0.00 | 0.00 | 0.00 | 76 | 1009.6 |
| 20260505082732 | 57 | 236 | 1.7 | 3.5 | 0.00 | 0.00 | 0.00 | 77 | 1009.5 |
| 20260505082230 | 57 | 204 | 1.7 | 2.6 | 0.00 | 0.00 | 0.00 | 78 | 1009.5 |
| 20260505081725 | 57 | 257 | 0.9 | 2.6 | 0.00 | 0.00 | 0.00 | 78 | 1009.5 |
| 20260505081223 | 57 | 232 | 1.7 | 2.6 | 0.00 | 0.00 | 0.00 | 78 | 1009.6 |
| 20260505080720 | 57 | 134 | 0.9 | 4.3 | 0.00 | 0.00 | 0.00 | 79 | 1009.5 |
| 20260505080215 | 57 | 133 | 1.7 | 3.5 | 0.00 | 0.00 | 0.00 | 79 | 1009.6 |
| 20260505075711 | 57 | 225 | 3.5 | 3.5 | 0.00 | 0.00 | 0.00 | 79 | 1009.4 |
| 20260505075209 | 57 | 219 | 2.6 | 3.5 | 0.00 | 0.00 | 0.00 | 79 | 1009.5 |
| 20260505074706 | 57 | 282 | 0.9 | 3.5 | 0.00 | 0.00 | 0.00 | 79 | 1009.6 |
| 20260505074203 | 57 | 223 | 1.7 | 3.5 | 0.00 | 0.00 | 0.00 | 79 | 1009.5 |
| 20260505073700 | 57 | 238 | 1.7 | 3.5 | 0.00 | 0.00 | 0.00 | 80 | 1009.7 |
| 20260505073158 | 56 | 243 | 2.6 | 3.5 | 0.00 | 0.00 | 0.00 | 81 | 1009.6 |
| 20260505072654 | 56 | 269 | 1.7 | 3.5 | 0.00 | 0.00 | 0.00 | 81 | 1009.5 |
| 20260505072151 | 56 | 244 | 1.7 | 3.5 | 0.00 | 0.00 | 0.00 | 81 | 1009.4 |
| 20260505071646 | 56 | 22 | 0.0 | 2.6 | 0.00 | 0.00 | 0.00 | 81 | 1009.5 |
| 20260505071144 | 56 | 252 | 1.7 | 2.6 | 0.00 | 0.00 | 0.00 | 80 | 1009.4 |
| 20260505070641 | 57 | 185 | 2.6 | 3.5 | 0.00 | 0.00 | 0.00 | 79 | 1009.6 |
| 20260505070137 | 57 | 225 | 1.7 | 4.3 | 0.00 | 0.00 | 0.00 | 79 | 1009.5 |
| 20260505065633 | 57 | 260 | 2.6 | 5.2 | 0.00 | 0.00 | 0.00 | 78 | 1009.6 |
| 20260505065130 | 57 | 321 | 0.9 | 3.5 | 0.00 | 0.00 | 0.00 | 77 | 1009.3 |
| 20260505064627 | 57 | 261 | 2.6 | 5.2 | 0.00 | 0.00 | 0.00 | 77 | 1009.6 |
| 20260505064125 | 58 | 163 | 1.7 | 4.3 | 0.00 | 0.00 | 0.00 | 76 | 1009.3 |
| 20260505063622 | 58 | 169 | 2.6 | 5.2 | 0.00 | 0.00 | 0.00 | 74 | 1009.7 |
| 20260505063118 | 58 | 114 | 0.9 | 5.2 | 0.00 | 0.00 | 0.00 | 73 | 1009.6 |
| 20260505062615 | 59 | 144 | 1.7 | 4.3 | 0.00 | 0.00 | 0.00 | 71 | 1009.5 |
| 20260505062112 | 59 | 199 | 0.0 | 3.5 | 0.00 | 0.00 | 0.00 | 70 | 1009.7 |
| 20260505061609 | 59 | 161 | 1.7 | 3.5 | 0.00 | 0.00 | 0.00 | 70 | 1009.6 |
| 20260505061107 | 59 | 224 | 1.7 | 2.6 | 0.00 | 0.00 | 0.00 | 68 | 1009.6 |
| 20260505060605 | 60 | 144 | 0.9 | 4.3 | 0.00 | 0.00 | 0.00 | 67 | 1009.5 |
| 20260505055556 | 61 | 179 | 1.7 | 2.6 | 0.00 | 0.00 | 0.00 | 64 | 1009.7 |
| 20260505055053 | 61 | 246 | 0.0 | 3.5 | 0.00 | 0.00 | 0.00 | 63 | 1009.7 |
| 20260505054550 | 61 | 223 | 2.6 | 3.5 | 0.00 | 0.00 | 0.00 | 62 | 1009.9 |
| 20260505054049 | 61 | 211 | 4.3 | 5.2 | 0.00 | 0.00 | 0.00 | 62 | 1009.6 |
| 20260505053545 | 61 | 203 | 2.6 | 7.0 | 0.00 | 0.00 | 0.00 | 61 | 1009.7 |
| 20260505053042 | 61 | 247 | 3.5 | 4.3 | 0.00 | 0.00 | 0.00 | 61 | 1009.9 |
| 20260505052539 | 62 | 240 | 3.5 | 5.2 | 0.00 | 0.00 | 0.00 | 61 | 1009.8 |
| 20260505052037 | 62 | 206 | 2.6 | 3.5 | 0.00 | 0.00 | 0.00 | 61 | 1010.1 |
| 20260505051533 | 62 | 160 | 1.7 | 4.3 | 0.00 | 0.00 | 0.00 | 60 | 1010.1 |
| 20260505051031 | 62 | 248 | 2.6 | 5.2 | 0.00 | 0.00 | 0.00 | 60 | 1009.9 |
| 20260505050529 | 62 | 235 | 5.2 | 5.2 | 0.00 | 0.00 | 0.00 | 59 | 1010.2 |
| 20260505041457 | 63 | 256 | 2.6 | 4.3 | 0.00 | 0.00 | 0.00 | 56 | 1010.4 |
| 20260505040954 | 63 | 245 | 3.5 | 5.2 | 0.00 | 0.00 | 0.00 | 55 | 1010.4 |
| 20260505040452 | 63 | 243 | 1.7 | 3.5 | 0.00 | 0.00 | 0.00 | 55 | 1010.3 |
| 20260505035948 | 64 | 245 | 0.9 | 5.2 | 0.00 | 0.00 | 0.00 | 55 | 1010.4 |
| 20260505035444 | 64 | 160 | 2.6 | 5.2 | 0.00 | 0.00 | 0.00 | 54 | 1010.2 |
| 20260505034942 | 64 | 298 | 1.7 | 7.0 | 0.00 | 0.00 | 0.00 | 54 | 1010.3 |
| 20260505034438 | 64 | 254 | 3.5 | 9.6 | 0.00 | 0.00 | 0.00 | 54 | 1010.5 |
| 20260505033935 | 64 | 250 | 3.5 | 11.3 | 0.00 | 0.00 | 0.00 | 53 | 1010.4 |
| 20260505033432 | 64 | 258 | 3.5 | 4.3 | 0.00 | 0.00 | 0.00 | 52 | 1010.5 |
| 20260505032930 | 64 | 166 | 3.5 | 11.3 | 0.00 | 0.00 | 0.00 | 52 | 1010.4 |
| 20260505032427 | 64 | 269 | 0.9 | 7.0 | 0.00 | 0.00 | 0.00 | 51 | 1010.2 |
| 20260505031923 | 64 | 241 | 2.6 | 8.7 | 0.00 | 0.00 | 0.00 | 51 | 1010.3 |
| 20260505031420 | 64 | 222 | 4.3 | 6.1 | 0.00 | 0.00 | 0.00 | 50 | 1010.2 |
| 20260505030917 | 65 | 103 | 2.6 | 8.7 | 0.00 | 0.00 | 0.00 | 50 | 1010.7 |
| 20260505030413 | 65 | 241 | 4.3 | 6.1 | 0.00 | 0.00 | 0.00 | 49 | 1010.6 |
| 20260505025909 | 65 | 219 | 0.0 | 5.2 | 0.00 | 0.00 | 0.00 | 49 | 1010.7 |
| 20260505025406 | 65 | 187 | 0.9 | 5.2 | 0.00 | 0.00 | 0.00 | 49 | 1010.5 |
| 20260505024905 | 65 | 239 | 0.9 | 7.0 | 0.00 | 0.00 | 0.00 | 48 | 1010.5 |
| 20260505024402 | 65 | 252 | 2.6 | 6.1 | 0.00 | 0.00 | 0.00 | 49 | 1010.7 |
| 20260505023859 | 65 | 257 | 2.6 | 6.1 | 0.00 | 0.00 | 0.00 | 49 | 1010.5 |
| 20260505023356 | 65 | 206 | 1.7 | 6.1 | 0.00 | 0.00 | 0.00 | 49 | 1010.6 |
| 20260505022853 | 65 | 240 | 1.7 | 8.7 | 0.00 | 0.00 | 0.00 | 48 | 1010.6 |
| 20260505022350 | 65 | 262 | 1.7 | 4.3 | 0.00 | 0.00 | 0.00 | 48 | 1010.8 |
| 20260505021848 | 65 | 249 | 3.5 | 4.3 | 0.00 | 0.00 | 0.00 | 48 | 1010.7 |
| 20260505021344 | 65 | 240 | 4.3 | 6.1 | 0.00 | 0.00 | 0.00 | 48 | 1010.8 |
| 20260505020840 | 65 | 269 | 0.0 | 3.5 | 0.00 | 0.00 | 0.00 | 48 | 1010.5 |
| 20260505020335 | 66 | 255 | 2.6 | 5.2 | 0.00 | 0.00 | 0.00 | 47 | 1010.6 |
| 20260505015832 | 66 | 224 | 2.6 | 5.2 | 0.00 | 0.00 | 0.00 | 47 | 1010.7 |
| 20260505015330 | 66 | 216 | 3.5 | 6.1 | 0.00 | 0.00 | 0.00 | 47 | 1010.6 |
| 20260505014827 | 66 | 248 | 2.6 | 5.2 | 0.00 | 0.00 | 0.00 | 47 | 1010.5 |
| 20260505014324 | 66 | 213 | 0.0 | 5.2 | 0.00 | 0.00 | 0.00 | 47 | 1010.6 |
| 20260505013820 | 66 | 241 | 3.5 | 6.1 | 0.00 | 0.00 | 0.00 | 47 | 1010.7 |
| 20260505013318 | 66 | 265 | 3.5 | 7.0 | 0.00 | 0.00 | 0.00 | 47 | 1010.8 |
| 20260505012816 | 66 | 221 | 4.3 | 6.1 | 0.00 | 0.00 | 0.00 | 47 | 1010.6 |
| 20260505012313 | 66 | 203 | 1.7 | 5.2 | 0.00 | 0.00 | 0.00 | 47 | 1010.3 |
| 20260505011809 | 66 | 136 | 1.7 | 2.6 | 0.00 | 0.00 | 0.00 | 47 | 1010.4 |
| 20260505011306 | 67 | 250 | 1.7 | 7.0 | 0.00 | 0.00 | 0.00 | 47 | 1010.1 |
| 20260505010802 | 67 | 246 | 4.3 | 5.2 | 0.00 | 0.00 | 0.00 | 47 | 1010.2 |
| 20260505010258 | 67 | 257 | 5.2 | 7.8 | 0.00 | 0.00 | 0.00 | 48 | 1010.1 |
| 20260505005754 | 66 | 231 | 2.6 | 6.1 | 0.00 | 0.00 | 0.00 | 48 | 1010.1 |
| 20260505005252 | 66 | 185 | 5.2 | 6.1 | 0.00 | 0.00 | 0.00 | 50 | 1010.0 |
| 20260505004749 | 66 | 234 | 3.5 | 7.0 | 0.00 | 0.00 | 0.00 | 51 | 1009.8 |
| 20260505004245 | 66 | 246 | 1.7 | 7.0 | 0.00 | 0.00 | 0.00 | 51 | 1009.9 |
| 20260505003742 | 66 | 245 | 3.5 | 7.0 | 0.00 | 0.00 | 0.00 | 52 | 1009.9 |
| 20260505003240 | 66 | 230 | 4.3 | 9.6 | 0.00 | 0.00 | 0.00 | 52 | 1009.9 |
| 20260505002736 | 66 | 189 | 2.6 | 7.8 | 0.00 | 0.00 | 0.00 | 52 | 1009.8 |
| 20260505002234 | 66 | 227 | 1.7 | 4.3 | 0.00 | 0.00 | 0.00 | 53 | 1009.8 |
| 20260505001731 | 66 | 261 | 1.7 | 7.8 | 0.00 | 0.00 | 0.00 | 53 | 1009.6 |
| 20260505001228 | 66 | 241 | 2.6 | 6.1 | 0.00 | 0.00 | 0.00 | 53 | 1009.6 |
| 20260505000725 | 66 | 220 | 3.5 | 7.0 | 0.00 | 0.00 | 0.00 | 53 | 1009.3 |
| 20260505000223 | 65 | 222 | 3.5 | 4.3 | 0.00 | 0.00 | 0.00 | 54 | 1009.4 |
| 20260504235719 | 66 | 248 | 3.5 | 3.5 | 0.00 | 0.00 | 0.00 | 54 | 1009.1 |
| 20260504235215 | 66 | 264 | 0.9 | 5.2 | 0.00 | 0.00 | 0.00 | 54 | 1009.2 |
| 20260504234713 | 66 | 218 | 2.6 | 5.2 | 0.00 | 0.00 | 0.00 | 54 | 1009.2 |
| 20260504234210 | 66 | 115 | 2.6 | 5.2 | 0.00 | 0.00 | 0.00 | 53 | 1009.3 |
| 20260504233706 | 66 | 277 | 1.7 | 7.0 | 0.00 | 0.00 | 0.00 | 53 | 1009.1 |
| 20260504233202 | 66 | 206 | 0.9 | 5.2 | 0.00 | 0.00 | 0.00 | 53 | 1008.9 |
| 20260504232700 | 67 | 226 | 3.5 | 5.2 | 0.00 | 0.00 | 0.00 | 52 | 1008.8 |
| 20260504232156 | 67 | 254 | 2.6 | 2.6 | 0.00 | 0.00 | 0.00 | 52 | 1008.8 |
| 20260504231653 | 67 | 195 | 2.6 | 4.3 | 0.00 | 0.00 | 0.00 | 53 | 1009.0 |
| 20260504231149 | 66 | 167 | 5.2 | 5.2 | 0.00 | 0.00 | 0.00 | 53 | 1008.8 |